sensor_id;sensor_type;location;lat;lon;timestamp;P1;durP1;ratioP1;P2;durP2;ratioP2
78838;SDS011;68405;47.190;27.558;2023-08-21T00:00:25;6.40;;;4.00;;
78838;SDS011;68405;47.190;27.558;2023-08-21T00:03:17;7.80;;;4.00;;
78838;SDS011;68405;47.190;27.558;2023-08-21T00:05:49;4.90;;;4.20;;
78838;SDS011;68405;47.190;27.558;2023-08-21T00:08:21;7.00;;;4.40;;
78838;SDS011;68405;47.190;27.558;2023-08-21T00:10:53;6.40;;;3.70;;
78838;SDS011;68405;47.190;27.558;2023-08-21T00:13:24;8.10;;;3.70;;
78838;SDS011;68405;47.190;27.558;2023-08-21T00:15:56;6.00;;;4.10;;
78838;SDS011;68405;47.190;27.558;2023-08-21T00:18:27;7.90;;;4.50;;
78838;SDS011;68405;47.190;27.558;2023-08-21T00:20:59;5.70;;;3.80;;
78838;SDS011;68405;47.190;27.558;2023-08-21T00:23:31;6.80;;;4.10;;
78838;SDS011;68405;47.190;27.558;2023-08-21T00:26:03;6.30;;;3.90;;
78838;SDS011;68405;47.190;27.558;2023-08-21T00:28:34;5.70;;;4.30;;
78838;SDS011;68405;47.190;27.558;2023-08-21T00:31:06;7.50;;;3.80;;
78838;SDS011;68405;47.190;27.558;2023-08-21T00:33:37;6.40;;;4.10;;
78838;SDS011;68405;47.190;27.558;2023-08-21T00:36:09;5.40;;;3.70;;
78838;SDS011;68405;47.190;27.558;2023-08-21T00:38:41;8.50;;;4.50;;
78838;SDS011;68405;47.190;27.558;2023-08-21T00:41:13;6.20;;;4.60;;
78838;SDS011;68405;47.190;27.558;2023-08-21T00:43:45;6.10;;;4.40;;
78838;SDS011;68405;47.190;27.558;2023-08-21T00:46:17;7.70;;;4.70;;
78838;SDS011;68405;47.190;27.558;2023-08-21T00:48:49;6.80;;;4.40;;
78838;SDS011;68405;47.190;27.558;2023-08-21T00:51:21;5.30;;;3.90;;
78838;SDS011;68405;47.190;27.558;2023-08-21T00:53:53;6.90;;;4.60;;
78838;SDS011;68405;47.190;27.558;2023-08-21T00:56:25;5.00;;;4.40;;
78838;SDS011;68405;47.190;27.558;2023-08-21T00:58:57;6.70;;;4.30;;
78838;SDS011;68405;47.190;27.558;2023-08-21T01:01:29;7.80;;;4.90;;
78838;SDS011;68405;47.190;27.558;2023-08-21T01:04:02;6.50;;;4.90;;
78838;SDS011;68405;47.190;27.558;2023-08-21T01:06:35;6.30;;;4.80;;
78838;SDS011;68405;47.190;27.558;2023-08-21T01:09:08;7.70;;;4.80;;
78838;SDS011;68405;47.190;27.558;2023-08-21T01:11:48;7.10;;;4.80;;
78838;SDS011;68405;47.190;27.558;2023-08-21T01:14:29;9.70;;;5.60;;
78838;SDS011;68405;47.190;27.558;2023-08-21T01:17:06;10.00;;;5.80;;
78838;SDS011;68405;47.190;27.558;2023-08-21T01:19:43;8.80;;;5.80;;
78838;SDS011;68405;47.190;27.558;2023-08-21T01:22:17;7.60;;;5.70;;
78838;SDS011;68405;47.190;27.558;2023-08-21T01:24:49;9.40;;;5.60;;
78838;SDS011;68405;47.190;27.558;2023-08-21T01:27:21;7.10;;;6.00;;
78838;SDS011;68405;47.190;27.558;2023-08-21T01:29:53;9.00;;;5.80;;
78838;SDS011;68405;47.190;27.558;2023-08-21T01:32:26;6.90;;;5.70;;
78838;SDS011;68405;47.190;27.558;2023-08-21T01:35:03;10.80;;;5.60;;
78838;SDS011;68405;47.190;27.558;2023-08-21T01:37:38;12.40;;;6.60;;
78838;SDS011;68405;47.190;27.558;2023-08-21T01:40:11;7.40;;;5.90;;
78838;SDS011;68405;47.190;27.558;2023-08-21T01:42:49;7.60;;;6.00;;
78838;SDS011;68405;47.190;27.558;2023-08-21T01:45:21;8.60;;;6.00;;
78838;SDS011;68405;47.190;27.558;2023-08-21T01:47:53;8.40;;;6.00;;
78838;SDS011;68405;47.190;27.558;2023-08-21T01:50:25;8.90;;;6.20;;
78838;SDS011;68405;47.190;27.558;2023-08-21T01:52:56;8.60;;;6.30;;
78838;SDS011;68405;47.190;27.558;2023-08-21T01:55:28;10.10;;;5.90;;
78838;SDS011;68405;47.190;27.558;2023-08-21T01:58:00;10.40;;;6.50;;
78838;SDS011;68405;47.190;27.558;2023-08-21T02:00:31;9.10;;;6.50;;
78838;SDS011;68405;47.190;27.558;2023-08-21T02:03:03;8.30;;;6.40;;
78838;SDS011;68405;47.190;27.558;2023-08-21T02:05:39;8.10;;;6.80;;
78838;SDS011;68405;47.190;27.558;2023-08-21T02:08:12;9.90;;;6.70;;
78838;SDS011;68405;47.190;27.558;2023-08-21T02:10:50;10.30;;;6.30;;
78838;SDS011;68405;47.190;27.558;2023-08-21T02:13:22;9.90;;;6.80;;
78838;SDS011;68405;47.190;27.558;2023-08-21T02:15:54;9.00;;;6.40;;
78838;SDS011;68405;47.190;27.558;2023-08-21T02:18:25;7.70;;;6.80;;
78838;SDS011;68405;47.190;27.558;2023-08-21T02:20:57;10.60;;;6.30;;
78838;SDS011;68405;47.190;27.558;2023-08-21T02:23:29;8.00;;;6.40;;
78838;SDS011;68405;47.190;27.558;2023-08-21T02:26:01;12.30;;;6.10;;
78838;SDS011;68405;47.190;27.558;2023-08-21T02:28:33;8.90;;;5.90;;
78838;SDS011;68405;47.190;27.558;2023-08-21T02:31:05;9.20;;;5.70;;
78838;SDS011;68405;47.190;27.558;2023-08-21T02:33:38;7.60;;;5.60;;
78838;SDS011;68405;47.190;27.558;2023-08-21T02:36:10;9.90;;;5.90;;
78838;SDS011;68405;47.190;27.558;2023-08-21T02:38:42;8.90;;;5.60;;
78838;SDS011;68405;47.190;27.558;2023-08-21T02:41:13;10.10;;;6.00;;
78838;SDS011;68405;47.190;27.558;2023-08-21T02:43:46;11.80;;;6.50;;
78838;SDS011;68405;47.190;27.558;2023-08-21T02:46:18;8.00;;;6.00;;
78838;SDS011;68405;47.190;27.558;2023-08-21T02:48:49;11.90;;;6.30;;
78838;SDS011;68405;47.190;27.558;2023-08-21T02:51:21;9.80;;;6.20;;
78838;SDS011;68405;47.190;27.558;2023-08-21T02:53:52;9.00;;;6.30;;
78838;SDS011;68405;47.190;27.558;2023-08-21T02:56:25;12.10;;;6.10;;
78838;SDS011;68405;47.190;27.558;2023-08-21T02:58:57;11.60;;;6.80;;
78838;SDS011;68405;47.190;27.558;2023-08-21T03:01:29;8.70;;;6.40;;
78838;SDS011;68405;47.190;27.558;2023-08-21T03:04:03;11.50;;;7.40;;
78838;SDS011;68405;47.190;27.558;2023-08-21T03:06:35;10.20;;;6.40;;
78838;SDS011;68405;47.190;27.558;2023-08-21T03:09:07;10.80;;;7.80;;
78838;SDS011;68405;47.190;27.558;2023-08-21T03:11:39;9.00;;;6.70;;
78838;SDS011;68405;47.190;27.558;2023-08-21T03:14:11;7.60;;;6.60;;
78838;SDS011;68405;47.190;27.558;2023-08-21T03:16:42;8.70;;;7.10;;
78838;SDS011;68405;47.190;27.558;2023-08-21T03:19:14;8.70;;;7.50;;
78838;SDS011;68405;47.190;27.558;2023-08-21T03:21:46;10.70;;;6.90;;
78838;SDS011;68405;47.190;27.558;2023-08-21T03:24:18;10.40;;;6.60;;
78838;SDS011;68405;47.190;27.558;2023-08-21T03:26:50;9.20;;;5.80;;
78838;SDS011;68405;47.190;27.558;2023-08-21T03:29:21;10.30;;;6.80;;
78838;SDS011;68405;47.190;27.558;2023-08-21T03:31:54;10.90;;;7.20;;
78838;SDS011;68405;47.190;27.558;2023-08-21T03:34:25;9.10;;;6.70;;
78838;SDS011;68405;47.190;27.558;2023-08-21T03:36:57;7.50;;;6.60;;
78838;SDS011;68405;47.190;27.558;2023-08-21T03:39:29;11.30;;;6.50;;
78838;SDS011;68405;47.190;27.558;2023-08-21T03:42:01;10.00;;;6.70;;
78838;SDS011;68405;47.190;27.558;2023-08-21T03:44:33;10.60;;;6.80;;
78838;SDS011;68405;47.190;27.558;2023-08-21T03:47:05;10.90;;;7.50;;
78838;SDS011;68405;47.190;27.558;2023-08-21T03:49:37;10.20;;;6.90;;
78838;SDS011;68405;47.190;27.558;2023-08-21T03:52:09;11.00;;;7.50;;
78838;SDS011;68405;47.190;27.558;2023-08-21T03:54:41;10.20;;;7.10;;
78838;SDS011;68405;47.190;27.558;2023-08-21T03:57:13;12.10;;;7.60;;
78838;SDS011;68405;47.190;27.558;2023-08-21T03:59:45;12.10;;;8.40;;
78838;SDS011;68405;47.190;27.558;2023-08-21T04:02:16;10.40;;;7.30;;
78838;SDS011;68405;47.190;27.558;2023-08-21T04:04:48;12.40;;;8.30;;
78838;SDS011;68405;47.190;27.558;2023-08-21T04:07:20;10.60;;;7.50;;
78838;SDS011;68405;47.190;27.558;2023-08-21T04:09:52;9.70;;;7.50;;
78838;SDS011;68405;47.190;27.558;2023-08-21T04:12:24;10.20;;;6.70;;
78838;SDS011;68405;47.190;27.558;2023-08-21T04:14:55;10.00;;;7.60;;
78838;SDS011;68405;47.190;27.558;2023-08-21T04:17:27;8.70;;;7.40;;
78838;SDS011;68405;47.190;27.558;2023-08-21T04:19:59;10.60;;;7.70;;
78838;SDS011;68405;47.190;27.558;2023-08-21T04:22:31;8.00;;;6.70;;
78838;SDS011;68405;47.190;27.558;2023-08-21T04:25:03;12.00;;;7.80;;
78838;SDS011;68405;47.190;27.558;2023-08-21T04:27:36;10.70;;;7.80;;
78838;SDS011;68405;47.190;27.558;2023-08-21T04:30:09;8.40;;;7.20;;
78838;SDS011;68405;47.190;27.558;2023-08-21T04:32:41;13.20;;;7.80;;
78838;SDS011;68405;47.190;27.558;2023-08-21T04:35:13;10.20;;;6.70;;
78838;SDS011;68405;47.190;27.558;2023-08-21T04:37:46;7.30;;;6.20;;
78838;SDS011;68405;47.190;27.558;2023-08-21T04:40:18;7.40;;;6.40;;
78838;SDS011;68405;47.190;27.558;2023-08-21T04:42:50;8.10;;;6.80;;
78838;SDS011;68405;47.190;27.558;2023-08-21T04:45:22;7.60;;;6.50;;
78838;SDS011;68405;47.190;27.558;2023-08-21T04:47:53;9.70;;;6.30;;
78838;SDS011;68405;47.190;27.558;2023-08-21T04:50:25;14.00;;;6.30;;
78838;SDS011;68405;47.190;27.558;2023-08-21T04:52:57;9.20;;;6.40;;
78838;SDS011;68405;47.190;27.558;2023-08-21T04:55:29;7.40;;;6.10;;
78838;SDS011;68405;47.190;27.558;2023-08-21T04:58:01;7.90;;;5.90;;
78838;SDS011;68405;47.190;27.558;2023-08-21T05:00:32;8.00;;;5.70;;
78838;SDS011;68405;47.190;27.558;2023-08-21T05:03:05;10.20;;;5.70;;
78838;SDS011;68405;47.190;27.558;2023-08-21T05:05:38;8.80;;;5.40;;
78838;SDS011;68405;47.190;27.558;2023-08-21T05:08:09;8.50;;;6.20;;
78838;SDS011;68405;47.190;27.558;2023-08-21T05:10:41;8.10;;;5.70;;
78838;SDS011;68405;47.190;27.558;2023-08-21T05:13:13;8.00;;;5.90;;
78838;SDS011;68405;47.190;27.558;2023-08-21T05:15:49;6.70;;;5.80;;
78838;SDS011;68405;47.190;27.558;2023-08-21T05:18:24;6.80;;;5.80;;
78838;SDS011;68405;47.190;27.558;2023-08-21T05:20:57;9.30;;;5.20;;
78838;SDS011;68405;47.190;27.558;2023-08-21T05:23:28;6.50;;;5.00;;
78838;SDS011;68405;47.190;27.558;2023-08-21T05:26:00;6.70;;;5.60;;
78838;SDS011;68405;47.190;27.558;2023-08-21T05:28:32;9.40;;;6.30;;
78838;SDS011;68405;47.190;27.558;2023-08-21T05:31:05;10.20;;;6.00;;
78838;SDS011;68405;47.190;27.558;2023-08-21T05:33:37;10.20;;;5.90;;
78838;SDS011;68405;47.190;27.558;2023-08-21T05:36:08;8.30;;;5.90;;
78838;SDS011;68405;47.190;27.558;2023-08-21T05:38:40;10.30;;;6.60;;
78838;SDS011;68405;47.190;27.558;2023-08-21T05:41:12;8.00;;;5.50;;
78838;SDS011;68405;47.190;27.558;2023-08-21T05:43:43;9.10;;;6.00;;
78838;SDS011;68405;47.190;27.558;2023-08-21T05:46:16;7.00;;;5.60;;
78838;SDS011;68405;47.190;27.558;2023-08-21T05:48:48;10.40;;;5.70;;
78838;SDS011;68405;47.190;27.558;2023-08-21T05:51:19;11.50;;;6.10;;
78838;SDS011;68405;47.190;27.558;2023-08-21T05:53:51;7.10;;;5.30;;
78838;SDS011;68405;47.190;27.558;2023-08-21T05:56:23;7.50;;;6.00;;
78838;SDS011;68405;47.190;27.558;2023-08-21T05:58:55;9.10;;;5.80;;
78838;SDS011;68405;47.190;27.558;2023-08-21T06:01:26;10.30;;;5.70;;
78838;SDS011;68405;47.190;27.558;2023-08-21T06:03:58;6.40;;;5.90;;
78838;SDS011;68405;47.190;27.558;2023-08-21T06:06:30;7.90;;;5.70;;
78838;SDS011;68405;47.190;27.558;2023-08-21T06:09:02;7.10;;;5.70;;
78838;SDS011;68405;47.190;27.558;2023-08-21T06:11:35;6.00;;;5.00;;
78838;SDS011;68405;47.190;27.558;2023-08-21T06:14:07;8.90;;;5.60;;
78838;SDS011;68405;47.190;27.558;2023-08-21T06:16:39;9.20;;;5.80;;
78838;SDS011;68405;47.190;27.558;2023-08-21T06:19:12;11.50;;;5.90;;
78838;SDS011;68405;47.190;27.558;2023-08-21T06:21:44;7.80;;;5.60;;
78838;SDS011;68405;47.190;27.558;2023-08-21T06:24:15;5.50;;;5.00;;
78838;SDS011;68405;47.190;27.558;2023-08-21T06:26:47;6.30;;;5.80;;
78838;SDS011;68405;47.190;27.558;2023-08-21T06:29:19;6.50;;;5.00;;
78838;SDS011;68405;47.190;27.558;2023-08-21T06:31:52;8.90;;;5.40;;
78838;SDS011;68405;47.190;27.558;2023-08-21T06:34:24;7.30;;;6.00;;
78838;SDS011;68405;47.190;27.558;2023-08-21T06:36:55;5.90;;;5.40;;
78838;SDS011;68405;47.190;27.558;2023-08-21T06:39:27;5.90;;;5.20;;
78838;SDS011;68405;47.190;27.558;2023-08-21T06:41:59;6.30;;;5.70;;
78838;SDS011;68405;47.190;27.558;2023-08-21T06:44:31;6.70;;;5.70;;
78838;SDS011;68405;47.190;27.558;2023-08-21T06:47:02;7.10;;;6.00;;
78838;SDS011;68405;47.190;27.558;2023-08-21T06:49:34;8.00;;;5.90;;
78838;SDS011;68405;47.190;27.558;2023-08-21T06:52:06;10.00;;;5.50;;
78838;SDS011;68405;47.190;27.558;2023-08-21T06:54:39;6.70;;;5.70;;
78838;SDS011;68405;47.190;27.558;2023-08-21T06:57:10;9.20;;;6.30;;
78838;SDS011;68405;47.190;27.558;2023-08-21T06:59:43;9.10;;;6.50;;
78838;SDS011;68405;47.190;27.558;2023-08-21T07:02:15;6.80;;;5.90;;
78838;SDS011;68405;47.190;27.558;2023-08-21T07:04:47;8.20;;;5.50;;
78838;SDS011;68405;47.190;27.558;2023-08-21T07:07:18;9.40;;;6.70;;
78838;SDS011;68405;47.190;27.558;2023-08-21T07:09:50;7.50;;;6.40;;
78838;SDS011;68405;47.190;27.558;2023-08-21T07:12:23;6.30;;;5.70;;
78838;SDS011;68405;47.190;27.558;2023-08-21T07:14:54;6.50;;;5.90;;
78838;SDS011;68405;47.190;27.558;2023-08-21T07:17:26;6.80;;;5.80;;
78838;SDS011;68405;47.190;27.558;2023-08-21T07:19:57;6.70;;;6.20;;
78838;SDS011;68405;47.190;27.558;2023-08-21T07:22:29;7.90;;;6.20;;
78838;SDS011;68405;47.190;27.558;2023-08-21T07:27:32;6.90;;;6.30;;
78838;SDS011;68405;47.190;27.558;2023-08-21T07:30:05;7.00;;;6.40;;
78838;SDS011;68405;47.190;27.558;2023-08-21T07:32:39;8.90;;;6.00;;
78838;SDS011;68405;47.190;27.558;2023-08-21T07:35:10;9.70;;;5.90;;
78838;SDS011;68405;47.190;27.558;2023-08-21T07:37:45;8.70;;;6.80;;
78838;SDS011;68405;47.190;27.558;2023-08-21T07:40:16;7.50;;;6.90;;
78838;SDS011;68405;47.190;27.558;2023-08-21T07:42:48;8.00;;;7.40;;
78838;SDS011;68405;47.190;27.558;2023-08-21T07:45:20;7.60;;;6.90;;
78838;SDS011;68405;47.190;27.558;2023-08-21T07:47:52;9.60;;;7.30;;
78838;SDS011;68405;47.190;27.558;2023-08-21T07:50:23;10.10;;;7.60;;
78838;SDS011;68405;47.190;27.558;2023-08-21T07:52:55;7.10;;;6.50;;
78838;SDS011;68405;47.190;27.558;2023-08-21T07:55:27;9.00;;;7.70;;
78838;SDS011;68405;47.190;27.558;2023-08-21T07:57:58;7.50;;;6.50;;
78838;SDS011;68405;47.190;27.558;2023-08-21T08:00:30;7.30;;;6.70;;
78838;SDS011;68405;47.190;27.558;2023-08-21T08:03:02;8.10;;;7.30;;
78838;SDS011;68405;47.190;27.558;2023-08-21T08:05:34;8.80;;;7.40;;
78838;SDS011;68405;47.190;27.558;2023-08-21T08:08:06;8.50;;;7.80;;
78838;SDS011;68405;47.190;27.558;2023-08-21T08:13:09;7.90;;;7.20;;
78838;SDS011;68405;47.190;27.558;2023-08-21T08:18:12;7.80;;;7.00;;
78838;SDS011;68405;47.190;27.558;2023-08-21T08:20:44;8.70;;;7.80;;
78838;SDS011;68405;47.190;27.558;2023-08-21T08:23:15;8.50;;;7.70;;
78838;SDS011;68405;47.190;27.558;2023-08-21T08:25:47;7.50;;;6.70;;
78838;SDS011;68405;47.190;27.558;2023-08-21T08:28:19;7.40;;;6.60;;
78838;SDS011;68405;47.190;27.558;2023-08-21T08:30:51;7.30;;;6.50;;
78838;SDS011;68405;47.190;27.558;2023-08-21T08:33:23;8.30;;;7.40;;
78838;SDS011;68405;47.190;27.558;2023-08-21T08:35:55;8.70;;;8.00;;
78838;SDS011;68405;47.190;27.558;2023-08-21T08:38:27;8.40;;;7.50;;
78838;SDS011;68405;47.190;27.558;2023-08-21T08:40:58;8.40;;;7.60;;
78838;SDS011;68405;47.190;27.558;2023-08-21T08:43:32;7.80;;;7.10;;
78838;SDS011;68405;47.190;27.558;2023-08-21T08:46:06;9.20;;;7.70;;
78838;SDS011;68405;47.190;27.558;2023-08-21T08:48:39;8.30;;;7.50;;
78838;SDS011;68405;47.190;27.558;2023-08-21T08:53:41;8.60;;;6.80;;
78838;SDS011;68405;47.190;27.558;2023-08-21T08:56:14;7.60;;;7.00;;
78838;SDS011;68405;47.190;27.558;2023-08-21T08:58:46;8.00;;;7.00;;
78838;SDS011;68405;47.190;27.558;2023-08-21T09:03:47;11.10;;;5.50;;
78838;SDS011;68405;47.190;27.558;2023-08-21T09:06:20;7.20;;;5.70;;
78838;SDS011;68405;47.190;27.558;2023-08-21T09:08:54;6.10;;;5.50;;
78838;SDS011;68405;47.190;27.558;2023-08-21T09:11:30;8.10;;;6.10;;
78838;SDS011;68405;47.190;27.558;2023-08-21T09:14:02;6.30;;;5.70;;
78838;SDS011;68405;47.190;27.558;2023-08-21T09:16:34;8.80;;;6.50;;
78838;SDS011;68405;47.190;27.558;2023-08-21T09:19:06;7.00;;;6.20;;
78838;SDS011;68405;47.190;27.558;2023-08-21T09:21:38;6.90;;;6.00;;
78838;SDS011;68405;47.190;27.558;2023-08-21T09:24:10;7.20;;;5.80;;
78838;SDS011;68405;47.190;27.558;2023-08-21T09:26:41;6.00;;;5.40;;
78838;SDS011;68405;47.190;27.558;2023-08-21T09:29:13;5.90;;;5.50;;
78838;SDS011;68405;47.190;27.558;2023-08-21T09:34:15;6.00;;;5.20;;
78838;SDS011;68405;47.190;27.558;2023-08-21T09:36:51;7.70;;;5.50;;
78838;SDS011;68405;47.190;27.558;2023-08-21T09:39:25;6.50;;;4.50;;
78838;SDS011;68405;47.190;27.558;2023-08-21T09:42:08;5.70;;;5.10;;
78838;SDS011;68405;47.190;27.558;2023-08-21T09:44:40;5.50;;;4.50;;
78838;SDS011;68405;47.190;27.558;2023-08-21T09:49:42;6.90;;;5.20;;
78838;SDS011;68405;47.190;27.558;2023-08-21T09:52:14;8.70;;;5.30;;
78838;SDS011;68405;47.190;27.558;2023-08-21T09:54:46;5.60;;;4.70;;
78838;SDS011;68405;47.190;27.558;2023-08-21T09:57:18;7.00;;;4.70;;
78838;SDS011;68405;47.190;27.558;2023-08-21T09:59:53;7.50;;;5.40;;
78838;SDS011;68405;47.190;27.558;2023-08-21T10:02:25;6.10;;;4.50;;
78838;SDS011;68405;47.190;27.558;2023-08-21T10:04:58;5.00;;;4.50;;
78838;SDS011;68405;47.190;27.558;2023-08-21T10:07:31;6.70;;;4.80;;
78838;SDS011;68405;47.190;27.558;2023-08-21T10:12:34;5.70;;;4.80;;
78838;SDS011;68405;47.190;27.558;2023-08-21T10:15:06;6.00;;;4.40;;
78838;SDS011;68405;47.190;27.558;2023-08-21T10:17:39;5.30;;;4.80;;
78838;SDS011;68405;47.190;27.558;2023-08-21T10:20:12;8.20;;;4.80;;
78838;SDS011;68405;47.190;27.558;2023-08-21T10:22:52;8.60;;;4.50;;
78838;SDS011;68405;47.190;27.558;2023-08-21T10:25:25;7.60;;;4.70;;
78838;SDS011;68405;47.190;27.558;2023-08-21T10:27:56;7.20;;;4.60;;
78838;SDS011;68405;47.190;27.558;2023-08-21T10:30:32;5.00;;;3.90;;
78838;SDS011;68405;47.190;27.558;2023-08-21T10:33:03;7.60;;;4.80;;
78838;SDS011;68405;47.190;27.558;2023-08-21T10:35:35;5.00;;;4.30;;
78838;SDS011;68405;47.190;27.558;2023-08-21T10:38:07;6.40;;;5.70;;
78838;SDS011;68405;47.190;27.558;2023-08-21T10:40:40;6.80;;;4.90;;
78838;SDS011;68405;47.190;27.558;2023-08-21T10:43:38;9.00;;;4.80;;
78838;SDS011;68405;47.190;27.558;2023-08-21T10:46:11;5.70;;;4.70;;
78838;SDS011;68405;47.190;27.558;2023-08-21T10:48:44;5.60;;;5.00;;
78838;SDS011;68405;47.190;27.558;2023-08-21T10:51:15;6.20;;;4.50;;
78838;SDS011;68405;47.190;27.558;2023-08-21T10:53:48;6.60;;;5.00;;
78838;SDS011;68405;47.190;27.558;2023-08-21T10:56:19;6.20;;;4.90;;
78838;SDS011;68405;47.190;27.558;2023-08-21T10:58:51;7.20;;;5.10;;
78838;SDS011;68405;47.190;27.558;2023-08-21T11:01:23;5.10;;;4.40;;
78838;SDS011;68405;47.190;27.558;2023-08-21T11:03:54;7.60;;;4.60;;
78838;SDS011;68405;47.190;27.558;2023-08-21T11:06:26;6.60;;;4.20;;
78838;SDS011;68405;47.190;27.558;2023-08-21T11:08:58;5.60;;;5.00;;
78838;SDS011;68405;47.190;27.558;2023-08-21T11:11:29;7.90;;;4.80;;
78838;SDS011;68405;47.190;27.558;2023-08-21T11:14:01;6.20;;;4.80;;
78838;SDS011;68405;47.190;27.558;2023-08-21T11:16:33;6.60;;;4.40;;
78838;SDS011;68405;47.190;27.558;2023-08-21T11:19:05;8.30;;;4.90;;
78838;SDS011;68405;47.190;27.558;2023-08-21T11:21:36;6.30;;;5.30;;
78838;SDS011;68405;47.190;27.558;2023-08-21T11:24:08;7.40;;;5.70;;
78838;SDS011;68405;47.190;27.558;2023-08-21T11:26:39;6.80;;;5.90;;
78838;SDS011;68405;47.190;27.558;2023-08-21T11:29:11;5.50;;;4.70;;
78838;SDS011;68405;47.190;27.558;2023-08-21T11:31:44;6.30;;;5.70;;
78838;SDS011;68405;47.190;27.558;2023-08-21T11:34:19;11.50;;;5.10;;
78838;SDS011;68405;47.190;27.558;2023-08-21T11:36:51;8.00;;;5.80;;
78838;SDS011;68405;47.190;27.558;2023-08-21T11:39:24;6.20;;;5.60;;
78838;SDS011;68405;47.190;27.558;2023-08-21T11:41:58;14.10;;;5.50;;
78838;SDS011;68405;47.190;27.558;2023-08-21T11:44:30;6.40;;;5.60;;
78838;SDS011;68405;47.190;27.558;2023-08-21T11:47:01;7.60;;;5.10;;
78838;SDS011;68405;47.190;27.558;2023-08-21T11:49:33;9.20;;;5.80;;
78838;SDS011;68405;47.190;27.558;2023-08-21T11:52:09;8.40;;;4.80;;
78838;SDS011;68405;47.190;27.558;2023-08-21T11:54:41;8.20;;;6.10;;
78838;SDS011;68405;47.190;27.558;2023-08-21T11:57:16;5.10;;;4.60;;
78838;SDS011;68405;47.190;27.558;2023-08-21T11:59:51;7.10;;;4.70;;
78838;SDS011;68405;47.190;27.558;2023-08-21T12:02:23;4.90;;;4.50;;
78838;SDS011;68405;47.190;27.558;2023-08-21T12:05:00;8.40;;;4.80;;
78838;SDS011;68405;47.190;27.558;2023-08-21T12:07:34;7.60;;;5.00;;
78838;SDS011;68405;47.190;27.558;2023-08-21T12:10:07;5.10;;;4.60;;
78838;SDS011;68405;47.190;27.558;2023-08-21T12:12:39;11.40;;;5.50;;
78838;SDS011;68405;47.190;27.558;2023-08-21T12:15:11;6.10;;;5.20;;
78838;SDS011;68405;47.190;27.558;2023-08-21T12:17:42;6.00;;;5.40;;
78838;SDS011;68405;47.190;27.558;2023-08-21T12:20:14;6.10;;;5.50;;
78838;SDS011;68405;47.190;27.558;2023-08-21T12:22:45;6.00;;;5.40;;
78838;SDS011;68405;47.190;27.558;2023-08-21T12:25:17;5.70;;;5.20;;
78838;SDS011;68405;47.190;27.558;2023-08-21T12:27:49;6.40;;;5.10;;
78838;SDS011;68405;47.190;27.558;2023-08-21T12:30:20;6.70;;;5.00;;
78838;SDS011;68405;47.190;27.558;2023-08-21T12:32:53;6.00;;;5.40;;
78838;SDS011;68405;47.190;27.558;2023-08-21T12:35:24;6.00;;;5.40;;
78838;SDS011;68405;47.190;27.558;2023-08-21T12:37:57;6.80;;;5.20;;
78838;SDS011;68405;47.190;27.558;2023-08-21T12:40:34;10.70;;;5.70;;
78838;SDS011;68405;47.190;27.558;2023-08-21T12:43:05;10.60;;;5.20;;
78838;SDS011;68405;47.190;27.558;2023-08-21T12:45:37;8.80;;;6.60;;
78838;SDS011;68405;47.190;27.558;2023-08-21T12:48:09;7.00;;;5.60;;
78838;SDS011;68405;47.190;27.558;2023-08-21T12:50:40;7.40;;;5.80;;
78838;SDS011;68405;47.190;27.558;2023-08-21T12:53:12;6.60;;;5.60;;
78838;SDS011;68405;47.190;27.558;2023-08-21T12:55:43;6.40;;;5.60;;
78838;SDS011;68405;47.190;27.558;2023-08-21T12:58:15;6.30;;;5.60;;
78838;SDS011;68405;47.190;27.558;2023-08-21T13:00:47;8.40;;;5.70;;
78838;SDS011;68405;47.190;27.558;2023-08-21T13:03:19;6.60;;;5.00;;
78838;SDS011;68405;47.190;27.558;2023-08-21T13:05:50;6.40;;;5.40;;
78838;SDS011;68405;47.190;27.558;2023-08-21T13:08:22;8.50;;;5.70;;
78838;SDS011;68405;47.190;27.558;2023-08-21T13:10:55;6.50;;;5.80;;
78838;SDS011;68405;47.190;27.558;2023-08-21T13:13:26;7.00;;;5.50;;
78838;SDS011;68405;47.190;27.558;2023-08-21T13:15:58;6.30;;;5.70;;
78838;SDS011;68405;47.190;27.558;2023-08-21T13:18:30;6.80;;;5.70;;
78838;SDS011;68405;47.190;27.558;2023-08-21T13:21:01;5.40;;;4.90;;
78838;SDS011;68405;47.190;27.558;2023-08-21T13:23:33;6.50;;;5.60;;
78838;SDS011;68405;47.190;27.558;2023-08-21T13:26:05;6.20;;;5.60;;
78838;SDS011;68405;47.190;27.558;2023-08-21T13:28:36;9.20;;;5.70;;
78838;SDS011;68405;47.190;27.558;2023-08-21T13:31:08;5.70;;;5.20;;
78838;SDS011;68405;47.190;27.558;2023-08-21T13:33:46;9.10;;;5.70;;
78838;SDS011;68405;47.190;27.558;2023-08-21T13:36:18;6.90;;;5.10;;
78838;SDS011;68405;47.190;27.558;2023-08-21T13:38:50;5.30;;;4.90;;
78838;SDS011;68405;47.190;27.558;2023-08-21T13:41:22;6.60;;;5.90;;
78838;SDS011;68405;47.190;27.558;2023-08-21T13:43:54;6.10;;;5.40;;
78838;SDS011;68405;47.190;27.558;2023-08-21T13:46:25;8.10;;;5.30;;
78838;SDS011;68405;47.190;27.558;2023-08-21T13:48:57;5.80;;;5.20;;
78838;SDS011;68405;47.190;27.558;2023-08-21T13:51:28;7.40;;;4.70;;
78838;SDS011;68405;47.190;27.558;2023-08-21T13:54:00;5.70;;;5.10;;
78838;SDS011;68405;47.190;27.558;2023-08-21T13:56:32;5.90;;;5.10;;
78838;SDS011;68405;47.190;27.558;2023-08-21T13:59:03;6.20;;;5.60;;
78838;SDS011;68405;47.190;27.558;2023-08-21T14:01:35;5.60;;;5.10;;
78838;SDS011;68405;47.190;27.558;2023-08-21T14:04:07;6.10;;;5.00;;
78838;SDS011;68405;47.190;27.558;2023-08-21T14:06:39;5.80;;;5.30;;
78838;SDS011;68405;47.190;27.558;2023-08-21T14:09:11;7.50;;;5.30;;
78838;SDS011;68405;47.190;27.558;2023-08-21T14:11:42;6.10;;;5.50;;
78838;SDS011;68405;47.190;27.558;2023-08-21T14:14:14;6.90;;;5.10;;
78838;SDS011;68405;47.190;27.558;2023-08-21T14:16:46;5.20;;;4.70;;
78838;SDS011;68405;47.190;27.558;2023-08-21T14:19:18;6.00;;;4.80;;
78838;SDS011;68405;47.190;27.558;2023-08-21T14:21:49;7.50;;;5.30;;
78838;SDS011;68405;47.190;27.558;2023-08-21T14:24:21;5.80;;;4.80;;
78838;SDS011;68405;47.190;27.558;2023-08-21T14:26:53;6.60;;;5.50;;
78838;SDS011;68405;47.190;27.558;2023-08-21T14:29:25;7.20;;;5.10;;
78838;SDS011;68405;47.190;27.558;2023-08-21T14:31:57;9.80;;;5.50;;
78838;SDS011;68405;47.190;27.558;2023-08-21T14:34:29;5.80;;;4.70;;
78838;SDS011;68405;47.190;27.558;2023-08-21T14:37:01;8.60;;;5.50;;
78838;SDS011;68405;47.190;27.558;2023-08-21T14:39:33;7.40;;;6.10;;
78838;SDS011;68405;47.190;27.558;2023-08-21T14:42:05;8.00;;;5.00;;
78838;SDS011;68405;47.190;27.558;2023-08-21T14:44:36;9.60;;;5.00;;
78838;SDS011;68405;47.190;27.558;2023-08-21T14:47:08;6.10;;;5.50;;
78838;SDS011;68405;47.190;27.558;2023-08-21T14:49:39;5.80;;;5.20;;
78838;SDS011;68405;47.190;27.558;2023-08-21T14:52:11;7.10;;;5.90;;
78838;SDS011;68405;47.190;27.558;2023-08-21T14:54:43;5.90;;;5.10;;
78838;SDS011;68405;47.190;27.558;2023-08-21T14:57:14;9.00;;;5.80;;
78838;SDS011;68405;47.190;27.558;2023-08-21T14:59:46;5.40;;;5.00;;
78838;SDS011;68405;47.190;27.558;2023-08-21T15:02:18;5.20;;;4.70;;
78838;SDS011;68405;47.190;27.558;2023-08-21T15:04:49;6.60;;;6.00;;
78838;SDS011;68405;47.190;27.558;2023-08-21T15:07:21;5.70;;;5.10;;
78838;SDS011;68405;47.190;27.558;2023-08-21T15:09:52;6.60;;;5.00;;
78838;SDS011;68405;47.190;27.558;2023-08-21T15:12:24;7.70;;;5.30;;
78838;SDS011;68405;47.190;27.558;2023-08-21T15:14:56;5.80;;;5.20;;
78838;SDS011;68405;47.190;27.558;2023-08-21T15:17:28;5.10;;;4.60;;
78838;SDS011;68405;47.190;27.558;2023-08-21T15:19:59;6.70;;;5.50;;
78838;SDS011;68405;47.190;27.558;2023-08-21T15:25:02;8.80;;;5.20;;